createdAt,value
2023-03-06T00:01:34.903Z,18.87
2023-03-06T00:05:34.723Z,18.87
2023-03-06T00:09:34.700Z,18.87
2023-03-06T00:13:34.537Z,18.87
2023-03-06T00:17:34.338Z,18.87
2023-03-06T00:21:34.119Z,18.86
2023-03-06T00:25:33.920Z,18.86
2023-03-06T00:29:33.746Z,18.87
2023-03-06T00:33:33.561Z,18.86
2023-03-06T00:37:33.332Z,18.86
2023-03-06T00:41:33.127Z,18.86
2023-03-06T00:45:33.007Z,18.86
2023-03-06T00:49:32.739Z,18.86
2023-03-06T00:53:32.974Z,18.86
2023-03-06T00:57:32.390Z,18.85
2023-03-06T01:01:32.302Z,18.85
2023-03-06T01:05:32.243Z,18.84
2023-03-06T01:09:32.156Z,18.85
2023-03-06T01:13:32.030Z,18.83
2023-03-06T01:17:34.007Z,18.83
2023-03-06T01:21:31.944Z,18.82
2023-03-06T01:25:31.906Z,18.83
2023-03-06T01:29:31.886Z,18.82
2023-03-06T01:33:31.878Z,18.82
2023-03-06T01:37:31.716Z,18.83
2023-03-06T01:41:31.589Z,18.82
2023-03-06T01:45:31.603Z,18.82
2023-03-06T01:49:31.495Z,18.81
2023-03-06T01:53:31.560Z,18.81
2023-03-06T01:57:31.403Z,18.81
2023-03-06T02:01:31.512Z,18.81
2023-03-06T02:05:31.309Z,18.80
2023-03-06T02:09:31.204Z,18.81
2023-03-06T02:13:31.154Z,18.81
2023-03-06T02:17:31.170Z,18.80
2023-03-06T02:21:31.185Z,18.80
2023-03-06T02:25:31.286Z,18.80
2023-03-06T02:29:31.097Z,18.79
2023-03-06T02:33:30.911Z,18.79
2023-03-06T02:37:30.692Z,18.80
2023-03-06T02:41:30.568Z,18.79
2023-03-06T02:45:30.345Z,18.78
2023-03-06T02:49:30.180Z,18.78
2023-03-06T02:53:29.916Z,18.78
2023-03-06T02:57:29.734Z,18.79
2023-03-06T03:01:29.561Z,18.79
2023-03-06T03:05:29.313Z,18.78
2023-03-06T03:09:29.098Z,18.78
2023-03-06T03:13:28.875Z,18.77
2023-03-06T03:17:28.698Z,18.77
2023-03-06T03:21:28.509Z,18.77
2023-03-06T03:25:28.402Z,18.77
2023-03-06T03:29:28.415Z,18.75
2023-03-06T03:33:28.402Z,18.76
2023-03-06T03:37:28.227Z,18.76
2023-03-06T03:41:28.509Z,18.75
2023-03-06T03:45:27.986Z,18.74
2023-03-06T03:49:27.784Z,18.75
2023-03-06T03:53:27.594Z,18.74
2023-03-06T03:57:27.392Z,18.73
2023-03-06T04:01:27.190Z,18.74
2023-03-06T04:05:27.042Z,18.73
2023-03-06T04:09:26.858Z,18.72
2023-03-06T04:13:26.756Z,18.74
2023-03-06T04:17:26.612Z,18.75
2023-03-06T04:21:26.519Z,18.76
2023-03-06T04:25:26.471Z,18.78
2023-03-06T04:29:26.460Z,18.79
2023-03-06T04:33:26.456Z,18.80
2023-03-06T04:37:26.270Z,18.81
2023-03-06T04:41:26.035Z,18.81
2023-03-06T04:45:25.798Z,18.81
2023-03-06T04:49:25.574Z,18.82
2023-03-06T04:53:25.372Z,18.82
2023-03-06T04:57:25.145Z,18.83
2023-03-06T05:01:25.013Z,18.84
2023-03-06T05:05:24.719Z,18.83
2023-03-06T05:09:24.463Z,18.84
2023-03-06T05:13:24.242Z,18.83
2023-03-06T05:17:24.106Z,18.83
2023-03-06T05:21:23.893Z,18.85
2023-03-06T05:25:23.731Z,18.84
2023-03-06T05:29:23.543Z,18.86
2023-03-06T05:33:23.352Z,18.86
2023-03-06T05:37:23.172Z,18.87
2023-03-06T05:41:22.933Z,18.87
2023-03-06T05:45:22.752Z,18.87
2023-03-06T05:49:22.516Z,18.88
2023-03-06T05:53:22.317Z,18.91
2023-03-06T05:57:22.275Z,19.14
2023-03-06T06:01:22.262Z,19.22
2023-03-06T06:05:22.189Z,19.25
2023-03-06T06:09:22.093Z,19.27
2023-03-06T06:13:22.034Z,19.29
2023-03-06T06:17:21.931Z,19.33
2023-03-06T06:21:21.798Z,19.35
2023-03-06T06:25:21.689Z,19.36
2023-03-06T06:29:21.531Z,19.40
2023-03-06T06:33:21.424Z,19.42
2023-03-06T06:37:21.346Z,19.36
2023-03-06T06:41:50.746Z,19.41
2023-03-06T06:45:22.030Z,19.38
2023-03-06T06:49:21.133Z,19.43
2023-03-06T06:53:21.068Z,19.50
2023-03-06T06:57:20.601Z,19.53
2023-03-06T07:01:20.348Z,19.54
2023-03-06T07:05:21.773Z,19.59
2023-03-06T07:09:20.097Z,19.62
2023-03-06T07:13:20.090Z,19.67
2023-03-06T07:17:20.047Z,19.67
2023-03-06T07:21:20.019Z,19.70
2023-03-06T07:25:20.082Z,19.73
2023-03-06T07:29:20.120Z,19.76
2023-03-06T07:33:20.143Z,19.77
2023-03-06T07:37:20.613Z,19.77
2023-03-06T07:41:22.489Z,19.81
2023-03-06T07:45:20.117Z,19.82
2023-03-06T07:49:19.714Z,19.93
2023-03-06T07:53:19.604Z,19.94
2023-03-06T07:57:19.605Z,19.99
2023-03-06T08:01:19.182Z,19.99
2023-03-06T08:05:18.814Z,19.99
2023-03-06T08:09:21.630Z,19.95
2023-03-06T08:13:18.331Z,19.93
2023-03-06T08:17:18.644Z,19.94
2023-03-06T08:21:17.917Z,20.01
2023-03-06T08:25:17.850Z,20.00
2023-03-06T08:29:17.487Z,20.01
2023-03-06T08:33:17.626Z,20.06
2023-03-06T08:37:17.107Z,20.10
2023-03-06T08:41:17.110Z,20.10
2023-03-06T08:45:17.138Z,20.21
2023-03-06T08:49:16.669Z,20.18
2023-03-06T08:53:16.405Z,20.25
2023-03-06T08:57:16.334Z,20.25
2023-03-06T09:01:17.151Z,20.23
2023-03-06T09:05:16.227Z,20.24
2023-03-06T09:09:16.130Z,20.21
2023-03-06T09:13:16.020Z,20.23
2023-03-06T09:17:15.920Z,20.24
2023-03-06T09:21:16.107Z,20.24
2023-03-06T09:25:15.746Z,20.25
2023-03-06T09:29:15.658Z,20.28
2023-03-06T09:33:15.493Z,20.27
2023-03-06T09:37:16.352Z,20.23
2023-03-06T09:41:15.224Z,20.33
2023-03-06T09:45:15.232Z,20.44
2023-03-06T09:49:15.183Z,20.48
2023-03-06T09:53:15.248Z,20.46
2023-03-06T09:57:14.617Z,20.48
2023-03-06T10:01:14.312Z,20.46
2023-03-06T10:05:14.217Z,20.43
2023-03-06T10:09:14.155Z,20.45
2023-03-06T10:13:13.714Z,20.43
2023-03-06T10:17:13.515Z,20.41
2023-03-06T10:21:19.349Z,20.40
2023-03-06T10:25:14.211Z,20.43
2023-03-06T10:29:13.312Z,20.44
2023-03-06T10:33:12.756Z,20.46
2023-03-06T10:37:12.499Z,20.49
